Time;durP1;ratioP1;P1;durP2;ratioP2;P2;SDS_P1;SDS_P2;PMS_P1;PMS_P2;Temp;Humidity;BMP_temperature;BMP_pressure;BME280_temperature;BME280_humidity;BME280_pressure;Samples;Min_cycle;Max_cycle;Signal;HPM_P1;HPM_P2
2021/10/12 00:00:10;;;;;;;38.83;16.10;;;8.80;92.60;;;;;;5019621;28;20724;-67
2021/10/12 00:02:36;;;;;;;67.28;25.83;;;8.80;92.80;;;;;;5022959;28;20052;-68
2021/10/12 00:05:02;;;;;;;44.83;19.65;;;8.80;92.70;;;;;;5022389;28;20021;-68
2021/10/12 00:07:28;;;;;;;22.85;12.07;;;8.80;93.00;;;;;;5022419;28;20036;-67
2021/10/12 00:09:53;;;;;;;21.65;11.25;;;8.70;92.00;;;;;;5021930;28;20029;-67
2021/10/12 00:12:19;;;;;;;24.83;10.73;;;8.70;92.30;;;;;;5019192;28;20045;-68
2021/10/12 00:14:44;;;;;;;26.15;11.50;;;8.60;92.10;;;;;;5021895;28;20041;-68
2021/10/12 00:17:10;;;;;;;80.97;30.42;;;8.60;93.40;;;;;;5037204;28;20038;-68
2021/10/12 00:19:36;;;;;;;129.50;46.03;;;8.60;92.90;;;;;;5023451;28;20048;-68
2021/10/12 00:22:02;;;;;;;30.00;13.93;;;8.70;93.00;;;;;;5021362;28;20410;-68
2021/10/12 00:24:28;;;;;;;32.35;15.30;;;8.70;93.60;;;;;;5019608;28;20533;-68
2021/10/12 00:26:53;;;;;;;31.75;14.10;;;8.70;93.80;;;;;;5020124;28;20021;-68
2021/10/12 00:29:19;;;;;;;28.33;13.05;;;8.60;93.90;;;;;;5018461;28;20032;-68
2021/10/12 00:31:45;;;;;;;29.30;13.57;;;8.70;93.90;;;;;;5021692;28;20044;-68
2021/10/12 00:34:10;;;;;;;26.17;12.35;;;8.70;93.90;;;;;;5019040;28;20072;-68
2021/10/12 00:36:36;;;;;;;28.38;12.40;;;8.60;94.20;;;;;;5016995;28;20042;-67
2021/10/12 00:39:03;;;;;;;23.95;12.20;;;8.60;93.90;;;;;;5015891;28;20375;-67
2021/10/12 00:41:28;;;;;;;24.52;11.43;;;8.70;93.70;;;;;;5018968;28;20187;-67
2021/10/12 00:43:54;;;;;;;28.95;13.45;;;8.70;93.70;;;;;;5021044;28;20112;-67
2021/10/12 00:46:20;;;;;;;27.65;12.68;;;8.70;94.10;;;;;;5022793;28;20049;-67
2021/10/12 00:48:46;;;;;;;27.15;11.93;;;8.70;94.00;;;;;;5021784;28;20445;-67
2021/10/12 00:51:11;;;;;;;26.13;12.25;;;8.60;93.90;;;;;;5020411;28;20107;-67
2021/10/12 00:53:37;;;;;;;22.88;11.20;;;8.60;93.40;;;;;;5018471;28;20044;-67
2021/10/12 00:56:04;;;;;;;28.73;12.45;;;8.60;93.40;;;;;;5021898;28;20040;-67
2021/10/12 00:58:30;;;;;;;28.00;12.10;;;8.60;93.90;;;;;;5018668;28;20029;-67
2021/10/12 01:00:55;;;;;;;28.70;12.57;;;8.60;93.70;;;;;;5023039;28;20030;-68
2021/10/12 01:03:21;;;;;;;27.33;12.52;;;8.60;93.80;;;;;;5019486;28;20034;-67
2021/10/12 01:05:47;;;;;;;31.33;13.70;;;8.60;94.00;;;;;;5020493;28;20075;-67
2021/10/12 01:08:12;;;;;;;30.80;12.73;;;8.70;94.00;;;;;;5020638;28;20025;-68
2021/10/12 01:10:38;;;;;;;28.85;13.93;;;8.70;94.40;;;;;;5020291;28;20079;-67
2021/10/12 01:13:06;;;;;;;28.27;11.40;;;8.70;94.30;;;;;;5021999;28;20025;-67
2021/10/12 01:15:32;;;;;;;24.10;11.52;;;8.70;94.00;;;;;;5022872;28;20493;-68
2021/10/12 01:18:00;;;;;;;26.80;11.30;;;8.70;93.90;;;;;;5020602;28;20049;-67
2021/10/12 01:20:27;;;;;;;27.33;12.95;;;8.70;94.00;;;;;;5022400;28;20026;-67
2021/10/12 01:22:54;;;;;;;29.05;12.75;;;8.70;94.20;;;;;;5019222;28;20036;-67
2021/10/12 01:25:20;;;;;;;29.88;13.68;;;8.60;94.40;;;;;;5019210;28;20021;-67
2021/10/12 01:27:45;;;;;;;27.15;12.30;;;8.70;94.40;;;;;;5024741;28;20026;-67
2021/10/12 01:30:12;;;;;;;24.60;12.00;;;8.70;94.20;;;;;;5023370;28;20103;-68
2021/10/12 01:32:39;;;;;;;25.90;12.88;;;8.70;94.30;;;;;;5024028;28;20075;-67
2021/10/12 01:35:06;;;;;;;24.95;12.32;;;8.60;94.50;;;;;;5024392;28;20494;-67
2021/10/12 01:37:31;;;;;;;26.48;11.48;;;8.60;94.50;;;;;;5025187;28;20037;-68
2021/10/12 01:39:57;;;;;;;25.00;11.98;;;8.60;94.40;;;;;;5027865;28;20040;-67
2021/10/12 01:42:24;;;;;;;22.15;10.63;;;8.60;94.40;;;;;;5024882;28;20048;-67
2021/10/12 01:44:51;;;;;;;23.13;11.23;;;8.60;94.20;;;;;;5036994;28;20025;-68
2021/10/12 01:47:17;;;;;;;23.58;10.57;;;8.60;94.20;;;;;;5026926;28;20025;-68
2021/10/12 01:49:42;;;;;;;23.98;12.10;;;8.50;94.20;;;;;;5024436;28;20155;-68
2021/10/12 01:52:12;;;;;;;28.90;12.02;;;8.50;94.30;;;;;;5025858;28;20033;-67
2021/10/12 01:54:38;;;;;;;27.73;11.10;;;8.50;94.40;;;;;;5024916;28;20037;-68
2021/10/12 01:57:03;;;;;;;27.08;12.05;;;8.50;94.40;;;;;;5023982;28;20033;-67
2021/10/12 01:59:29;;;;;;;28.90;12.52;;;8.50;94.40;;;;;;5025608;28;20021;-67
2021/10/12 02:01:55;;;;;;;27.67;12.40;;;8.50;94.80;;;;;;5036564;28;20124;-67
2021/10/12 02:04:21;;;;;;;30.85;13.10;;;8.50;94.90;;;;;;5022766;28;20017;-67
2021/10/12 02:06:46;;;;;;;31.67;13.55;;;8.50;94.70;;;;;;5025187;28;20428;-67
2021/10/12 02:09:12;;;;;;;32.17;12.57;;;8.50;94.60;;;;;;5022367;28;20029;-67
2021/10/12 02:11:38;;;;;;;28.58;12.73;;;8.50;94.60;;;;;;5024984;28;20572;-67
2021/10/12 02:14:04;;;;;;;28.90;12.27;;;8.50;94.40;;;;;;5025981;28;20044;-67
2021/10/12 02:16:30;;;;;;;26.67;11.98;;;8.50;94.50;;;;;;5024254;28;20061;-67
2021/10/12 02:18:56;;;;;;;23.65;11.25;;;8.50;94.30;;;;;;5025687;28;20025;-67
2021/10/12 02:21:21;;;;;;;27.00;13.00;;;8.50;94.80;;;;;;5025559;28;20080;-67
2021/10/12 02:23:47;;;;;;;26.27;12.30;;;8.50;94.30;;;;;;5023440;28;20021;-67
2021/10/12 02:26:13;;;;;;;28.17;12.60;;;8.60;94.20;;;;;;5022915;28;20033;-67
2021/10/12 02:28:38;;;;;;;25.77;11.68;;;8.60;94.50;;;;;;5023814;28;20021;-67
2021/10/12 02:31:04;;;;;;;22.05;10.75;;;8.50;94.10;;;;;;5022691;28;20132;-67
2021/10/12 02:33:30;;;;;;;26.30;11.68;;;8.50;94.10;;;;;;5023097;28;20056;-67
2021/10/12 02:35:55;;;;;;;25.02;11.02;;;8.50;94.10;;;;;;5024608;28;20969;-68
2021/10/12 02:38:21;;;;;;;22.15;10.93;;;8.40;94.10;;;;;;5022904;28;20113;-67
2021/10/12 02:40:49;;;;;;;21.30;10.35;;;8.40;94.00;;;;;;5023493;28;20025;-68
2021/10/12 02:43:15;;;;;;;27.80;11.40;;;8.40;94.00;;;;;;5020508;28;20029;-68
2021/10/12 02:45:41;;;;;;;24.63;11.57;;;8.40;94.00;;;;;;5022493;28;20079;-67
2021/10/12 02:48:06;;;;;;;27.23;11.63;;;8.40;94.20;;;;;;5023363;28;20040;-67
2021/10/12 02:50:32;;;;;;;26.25;12.85;;;8.40;94.20;;;;;;5022997;28;20128;-67
2021/10/12 02:52:58;;;;;;;28.25;12.80;;;8.40;94.40;;;;;;5024486;28;20022;-67
2021/10/12 02:55:23;;;;;;;30.58;12.75;;;8.40;94.50;;;;;;5022673;28;20033;-67
2021/10/12 02:57:49;;;;;;;26.98;11.70;;;8.40;94.70;;;;;;5022896;28;20034;-68
2021/10/12 03:00:15;;;;;;;33.30;12.18;;;8.40;94.80;;;;;;5024732;28;20033;-67
2021/10/12 03:02:40;;;;;;;29.05;12.13;;;8.40;94.70;;;;;;5024203;28;20025;-67
2021/10/12 03:05:06;;;;;;;30.73;12.45;;;8.40;95.00;;;;;;5022922;28;20699;-68
2021/10/12 03:07:32;;;;;;;44.45;18.13;;;8.40;94.90;;;;;;5022725;28;20096;-68
2021/10/12 03:09:58;;;;;;;31.42;13.13;;;8.40;94.80;;;;;;5022768;28;20512;-67
2021/10/12 03:12:23;;;;;;;30.33;13.73;;;8.40;95.30;;;;;;5022120;28;20040;-67
2021/10/12 03:14:49;;;;;;;32.15;13.15;;;8.40;95.40;;;;;;5021511;28;20057;-67
2021/10/12 03:17:14;;;;;;;31.38;13.27;;;8.40;95.40;;;;;;5020586;28;20394;-67
2021/10/12 03:19:40;;;;;;;27.70;11.70;;;8.40;95.20;;;;;;5020172;28;20037;-68
2021/10/12 03:22:11;;;;;;;29.95;12.90;;;8.40;95.10;;;;;;5019923;28;20022;-67
2021/10/12 03:24:38;;;;;;;31.15;11.90;;;8.40;95.10;;;;;;5022636;28;20040;-67
2021/10/12 03:27:05;;;;;;;28.23;11.88;;;8.40;95.10;;;;;;5022815;28;20029;-67
2021/10/12 03:29:30;;;;;;;25.88;13.07;;;8.40;95.10;;;;;;5020100;28;20433;-68
2021/10/12 03:31:59;;;;;;;28.42;12.52;;;8.40;94.90;;;;;;5022136;28;20168;-67
2021/10/12 03:34:28;;;;;;;27.55;12.32;;;8.40;94.70;;;;;;5020871;28;20136;-68
2021/10/12 03:36:55;;;;;;;28.45;10.77;;;8.40;94.60;;;;;;5023150;28;20026;-67
2021/10/12 03:39:22;;;;;;;27.95;12.07;;;8.40;94.50;;;;;;5022076;28;20072;-68
2021/10/12 03:41:47;;;;;;;26.95;11.32;;;8.40;94.40;;;;;;5022359;28;20041;-68
2021/10/12 03:44:13;;;;;;;30.90;11.85;;;8.40;94.60;;;;;;5025922;28;20135;-67
2021/10/12 03:46:39;;;;;;;25.40;12.00;;;8.40;94.60;;;;;;5023315;28;20112;-67
2021/10/12 03:49:04;;;;;;;31.65;12.52;;;8.40;94.60;;;;;;5019016;28;20100;-67
2021/10/12 03:51:30;;;;;;;26.13;12.45;;;8.30;94.90;;;;;;5022141;28;20449;-68
2021/10/12 03:53:56;;;;;;;27.95;13.07;;;8.40;95.10;;;;;;5021077;28;20083;-67
2021/10/12 03:56:21;;;;;;;27.10;12.30;;;8.40;94.80;;;;;;5038642;28;20482;-68
2021/10/12 03:58:47;;;;;;;27.35;12.20;;;8.40;94.90;;;;;;5021461;28;20510;-67
2021/10/12 04:01:13;;;;;;;29.60;12.65;;;8.40;94.90;;;;;;5021070;28;20049;-67
2021/10/12 04:03:40;;;;;;;30.90;12.90;;;8.30;95.10;;;;;;5022189;28;20589;-67
2021/10/12 04:06:05;;;;;;;26.50;11.85;;;8.30;95.00;;;;;;5019863;28;20532;-68
2021/10/12 04:08:31;;;;;;;26.38;10.80;;;8.30;94.90;;;;;;5022829;28;20020;-68
2021/10/12 04:10:57;;;;;;;32.92;12.63;;;8.30;94.90;;;;;;5023754;28;20033;-67
2021/10/12 04:13:22;;;;;;;28.30;11.88;;;8.30;95.00;;;;;;5022061;28;20029;-67
2021/10/12 04:15:48;;;;;;;25.30;11.73;;;8.30;95.00;;;;;;5020408;28;20029;-68
2021/10/12 04:18:13;;;;;;;25.30;11.50;;;8.30;95.10;;;;;;5017451;28;20033;-67
2021/10/12 04:20:39;;;;;;;29.40;11.82;;;8.20;95.10;;;;;;5022619;28;20030;-67
2021/10/12 04:23:08;;;;;;;26.15;11.82;;;8.20;95.10;;;;;;5018825;28;20100;-67
2021/10/12 04:25:34;;;;;;;29.48;11.75;;;8.20;95.20;;;;;;5022861;28;20021;-67
2021/10/12 04:28:00;;;;;;;26.60;11.48;;;8.20;95.50;;;;;;5022503;28;20021;-67
2021/10/12 04:30:26;;;;;;;27.13;11.63;;;8.20;95.20;;;;;;5022674;28;20461;-68
2021/10/12 04:32:52;;;;;;;29.67;11.73;;;8.10;95.20;;;;;;5022380;28;20045;-67
2021/10/12 04:35:17;;;;;;;26.23;11.10;;;8.20;95.10;;;;;;5020628;28;20025;-68
2021/10/12 04:37:43;;;;;;;33.40;13.55;;;8.10;95.10;;;;;;5022800;28;20072;-67
2021/10/12 04:40:09;;;;;;;29.08;12.40;;;8.10;95.20;;;;;;5022773;28;20087;-68
2021/10/12 04:42:35;;;;;;;31.35;13.07;;;8.10;95.30;;;;;;5020381;28;20033;-68
2021/10/12 04:45:01;;;;;;;27.02;12.20;;;8.10;95.30;;;;;;5022843;28;20076;-67
2021/10/12 04:47:27;;;;;;;32.85;12.90;;;8.10;95.40;;;;;;5022571;28;20033;-67
2021/10/12 04:49:53;;;;;;;25.00;11.63;;;8.10;95.70;;;;;;5021124;28;20067;-68
2021/10/12 04:52:18;;;;;;;30.17;13.20;;;8.10;95.80;;;;;;5022136;28;20050;-68
2021/10/12 04:54:44;;;;;;;27.13;12.52;;;8.10;95.70;;;;;;5021630;28;20498;-67
2021/10/12 04:57:10;;;;;;;29.95;13.48;;;8.10;95.60;;;;;;5021777;28;20402;-68
2021/10/12 04:59:35;;;;;;;29.58;13.07;;;8.10;95.60;;;;;;5023601;28;20025;-67
2021/10/12 05:02:01;;;;;;;26.92;12.40;;;8.20;95.50;;;;;;5024557;28;20182;-68
2021/10/12 05:04:26;;;;;;;25.33;11.30;;;8.20;95.60;;;;;;5025519;28;20037;-68
2021/10/12 05:06:52;;;;;;;32.67;12.75;;;8.20;95.50;;;;;;5025899;28;20075;-67
2021/10/12 05:09:18;;;;;;;27.45;12.02;;;8.20;95.60;;;;;;5027075;28;20029;-68
2021/10/12 05:11:44;;;;;;;30.50;13.40;;;8.20;95.70;;;;;;5026266;28;20033;-68
2021/10/12 05:14:09;;;;;;;32.20;12.77;;;8.10;95.60;;;;;;5024200;28;20033;-67
2021/10/12 05:16:35;;;;;;;28.13;12.63;;;8.20;95.60;;;;;;5025189;28;20043;-67
2021/10/12 05:19:01;;;;;;;33.38;12.95;;;8.10;95.70;;;;;;5024440;28;20030;-67
2021/10/12 05:21:28;;;;;;;28.90;13.02;;;8.10;95.90;;;;;;5021390;28;20048;-67
2021/10/12 05:23:53;;;;;;;30.38;12.13;;;8.10;95.70;;;;;;5025055;28;20119;-67
2021/10/12 05:26:20;;;;;;;32.00;12.82;;;8.10;95.70;;;;;;5025173;28;20112;-67
2021/10/12 05:28:46;;;;;;;28.55;12.82;;;8.20;95.70;;;;;;5024227;28;20033;-66
2021/10/12 05:31:12;;;;;;;31.70;13.98;;;8.10;95.80;;;;;;5025736;28;20036;-67
2021/10/12 05:33:38;;;;;;;31.15;12.93;;;8.10;96.00;;;;;;5025457;28;20133;-68
2021/10/12 05:36:04;;;;;;;27.77;13.10;;;8.20;95.80;;;;;;5027103;28;20025;-66
2021/10/12 05:38:29;;;;;;;28.20;12.50;;;8.20;95.70;;;;;;5023539;28;20042;-67
2021/10/12 05:40:56;;;;;;;32.28;13.25;;;8.20;95.70;;;;;;5030396;28;20033;-67
2021/10/12 05:43:22;;;;;;;30.75;13.95;;;8.10;95.60;;;;;;5030121;28;20029;-67
2021/10/12 05:45:49;;;;;;;32.78;12.52;;;8.20;95.60;;;;;;5030447;28;20082;-67
2021/10/12 05:48:16;;;;;;;28.02;13.38;;;8.20;95.70;;;;;;5028022;28;20390;-67
2021/10/12 05:50:43;;;;;;;30.05;12.57;;;8.10;95.70;;;;;;5022972;28;20057;-67
2021/10/12 05:53:56;;;;;;;28.75;12.75;;;8.20;95.80;;;;;;5027358;28;20021;-68
2021/10/12 05:58:30;;;;;;;33.22;13.52;;;8.20;95.90;;;;;;5026246;28;20033;-67
2021/10/12 06:00:56;;;;;;;27.52;13.10;;;8.20;95.90;;;;;;5025990;28;20112;-68
2021/10/12 06:03:22;;;;;;;33.67;13.90;;;8.10;95.80;;;;;;5027293;28;20053;-67
2021/10/12 06:05:48;;;;;;;30.52;13.23;;;8.20;95.80;;;;;;5031200;28;20445;-67
2021/10/12 06:08:15;;;;;;;30.67;13.32;;;8.20;95.80;;;;;;5027379;28;20029;-67
2021/10/12 06:10:41;;;;;;;30.77;12.82;;;8.20;95.90;;;;;;5025158;28;20765;-68
2021/10/12 06:13:10;;;;;;;26.23;12.40;;;8.20;95.90;;;;;;5025007;28;20111;-68
2021/10/12 06:15:37;;;;;;;36.35;13.82;;;8.10;95.80;;;;;;5023184;28;20112;-67
2021/10/12 06:18:04;;;;;;;28.88;12.88;;;8.10;95.90;;;;;;5024584;28;20022;-68
2021/10/12 06:20:30;;;;;;;30.65;13.98;;;8.10;96.00;;;;;;5025104;28;20147;-68
2021/10/12 06:22:55;;;;;;;32.45;13.48;;;8.20;95.90;;;;;;5022381;28;20846;-68
2021/10/12 06:25:21;;;;;;;35.13;14.60;;;8.20;95.90;;;;;;5023237;28;20037;-68
2021/10/12 06:27:47;;;;;;;35.58;14.88;;;8.20;95.90;;;;;;5027222;28;20644;-67
2021/10/12 06:30:12;;;;;;;30.48;14.18;;;8.20;96.00;;;;;;5027381;28;20052;-67
2021/10/12 06:32:38;;;;;;;27.90;13.40;;;8.20;95.90;;;;;;5028100;28;20044;-67
2021/10/12 06:35:05;;;;;;;31.17;14.32;;;8.20;95.90;;;;;;5029287;28;20075;-67
2021/10/12 06:37:31;;;;;;;30.17;13.05;;;8.20;95.90;;;;;;5027738;28;20029;-68
2021/10/12 06:39:57;;;;;;;29.48;14.15;;;8.20;95.80;;;;;;5030226;28;20028;-68
2021/10/12 06:42:23;;;;;;;35.20;13.70;;;8.20;95.80;;;;;;5028011;28;20471;-68
2021/10/12 06:44:48;;;;;;;34.17;14.07;;;8.30;95.90;;;;;;5028831;28;20077;-67
2021/10/12 06:47:14;;;;;;;28.90;13.63;;;8.20;95.90;;;;;;5026947;28;20032;-68
2021/10/12 06:49:40;;;;;;;35.25;13.90;;;8.20;95.90;;;;;;5023737;28;20025;-66
2021/10/12 06:52:05;;;;;;;27.90;13.50;;;8.20;95.80;;;;;;5026855;28;20036;-67
2021/10/12 06:54:31;;;;;;;31.83;13.55;;;8.30;95.90;;;;;;5024137;28;20033;-67
2021/10/12 06:56:59;;;;;;;28.05;13.50;;;8.30;96.00;;;;;;5026410;28;20104;-67
2021/10/12 06:59:24;;;;;;;32.63;14.10;;;8.30;95.90;;;;;;5026524;28;20051;-67
2021/10/12 07:01:52;;;;;;;31.77;13.90;;;8.20;96.00;;;;;;5027263;28;20096;-67
2021/10/12 07:04:18;;;;;;;29.63;13.43;;;8.30;96.00;;;;;;5027616;28;20100;-67
2021/10/12 07:06:43;;;;;;;35.00;13.55;;;8.30;96.50;;;;;;5028532;28;20036;-68
2021/10/12 07:09:10;;;;;;;31.98;13.35;;;8.30;96.20;;;;;;5027248;28;20559;-68
2021/10/12 07:11:36;;;;;;;30.95;15.68;;;8.30;96.40;;;;;;5026022;28;20029;-67
2021/10/12 07:14:02;;;;;;;30.23;13.60;;;8.30;96.50;;;;;;5028763;28;20030;-68
2021/10/12 07:16:28;;;;;;;30.63;14.48;;;8.30;96.50;;;;;;5023481;28;20021;-68
2021/10/12 07:18:53;;;;;;;30.25;13.23;;;8.30;97.00;;;;;;5027254;28;20380;-67
2021/10/12 07:21:19;;;;;;;31.05;14.15;;;8.30;96.40;;;;;;5028756;28;20033;-67
2021/10/12 07:23:45;;;;;;;31.73;14.32;;;8.30;96.90;;;;;;5022215;28;20029;-68
2021/10/12 07:26:10;;;;;;;33.58;14.98;;;8.40;96.50;;;;;;5023689;28;20025;-68
2021/10/12 07:28:36;;;;;;;31.33;13.93;;;8.40;96.70;;;;;;5026502;28;20068;-68
2021/10/12 07:31:05;;;;;;;33.67;13.23;;;8.40;96.70;;;;;;5020966;28;20025;-68
2021/10/12 07:33:32;;;;;;;35.83;14.45;;;8.40;96.70;;;;;;5028051;28;20044;-67
2021/10/12 07:35:57;;;;;;;30.25;13.40;;;8.40;96.80;;;;;;5026985;28;20033;-67
2021/10/12 07:38:24;;;;;;;28.98;13.35;;;8.50;96.90;;;;;;5028858;28;20036;-67
2021/10/12 07:40:49;;;;;;;29.73;13.45;;;8.50;97.00;;;;;;5027311;28;20239;-67
2021/10/12 07:43:15;;;;;;;30.05;12.80;;;8.50;97.00;;;;;;5019841;28;20576;-67
2021/10/12 07:45:41;;;;;;;28.88;13.27;;;8.50;97.10;;;;;;5026162;28;20040;-68
2021/10/12 07:48:07;;;;;;;30.38;12.27;;;8.60;97.20;;;;;;5024819;28;20025;-67
2021/10/12 07:50:32;;;;;;;31.80;12.65;;;8.50;97.20;;;;;;5025945;28;20065;-68
2021/10/12 07:52:58;;;;;;;28.35;12.23;;;8.60;97.20;;;;;;5026967;28;20025;-67
2021/10/12 07:58:01;;;;;;;26.25;12.80;;;8.60;97.40;;;;;;5029010;28;20030;-67
2021/10/12 08:00:28;;;;;;;29.52;12.73;;;8.60;97.30;;;;;;5023085;28;20026;-67
2021/10/12 08:02:54;;;;;;;25.65;11.48;;;8.70;97.30;;;;;;5024253;28;20420;-68
2021/10/12 08:05:23;;;;;;;28.52;12.02;;;8.70;97.30;;;;;;5024190;28;20041;-68
2021/10/12 08:07:49;;;;;;;30.70;12.80;;;8.70;97.20;;;;;;5028007;28;20029;-67
2021/10/12 08:10:16;;;;;;;25.77;12.32;;;8.70;97.00;;;;;;5024116;28;20076;-68
2021/10/12 08:12:43;;;;;;;29.10;13.63;;;8.70;97.30;;;;;;5042746;28;20028;-68
2021/10/12 08:15:10;;;;;;;23.15;11.02;;;8.80;97.40;;;;;;5023897;28;20030;-68
2021/10/12 08:17:36;;;;;;;25.70;12.05;;;8.80;97.20;;;;;;5027642;28;20025;-68
2021/10/12 08:20:02;;;;;;;27.13;11.57;;;8.80;97.20;;;;;;5025042;28;20051;-67
2021/10/12 08:22:28;;;;;;;26.77;11.80;;;8.80;97.30;;;;;;5023756;28;20378;-67
2021/10/12 08:24:54;;;;;;;31.30;11.80;;;8.90;97.50;;;;;;5027347;28;20028;-68
2021/10/12 08:27:19;;;;;;;26.73;10.93;;;8.90;97.40;;;;;;5027954;28;20022;-68
2021/10/12 08:29:45;;;;;;;25.25;11.90;;;9.00;97.80;;;;;;5025676;28;20123;-67
2021/10/12 08:32:11;;;;;;;29.15;11.43;;;9.00;97.60;;;;;;5025040;28;20040;-68
2021/10/12 08:34:36;;;;;;;21.20;10.25;;;9.00;97.60;;;;;;5021779;28;20121;-68
2021/10/12 08:37:02;;;;;;;28.17;11.05;;;9.00;97.30;;;;;;5025728;28;20021;-68
2021/10/12 08:39:31;;;;;;;21.50;10.13;;;9.00;97.50;;;;;;5027852;28;20081;-68
2021/10/12 08:42:26;;;;;;;24.05;9.13;;;9.00;97.20;;;;;;5025789;28;20029;-68
2021/10/12 08:45:01;;;;;;;19.63;9.85;;;9.10;96.90;;;;;;5026107;28;20040;-68
2021/10/12 08:47:30;;;;;;;16.17;8.07;;;9.10;97.10;;;;;;5025593;28;20530;-68
2021/10/12 08:49:57;;;;;;;20.63;9.93;;;9.00;95.90;;;;;;5023828;28;20087;-68
2021/10/12 08:52:24;;;;;;;17.90;8.43;;;9.00;96.20;;;;;;5027673;28;20032;-68
2021/10/12 08:54:51;;;;;;;18.33;8.63;;;9.00;95.90;;;;;;5025632;28;20025;-67
2021/10/12 08:57:27;;;;;;;19.43;7.70;;;9.10;96.10;;;;;;5026588;28;20029;-67
2021/10/12 08:59:59;;;;;;;15.88;7.72;;;9.10;95.80;;;;;;5021901;28;20113;-67
2021/10/12 09:02:25;;;;;;;15.27;6.75;;;9.10;95.60;;;;;;5025997;28;20034;-67
2021/10/12 09:04:52;;;;;;;15.02;6.90;;;9.10;95.60;;;;;;5021936;28;20060;-67
2021/10/12 09:07:24;;;;;;;17.95;7.47;;;9.20;95.30;;;;;;5024125;28;20032;-68
2021/10/12 09:09:52;;;;;;;14.52;7.82;;;9.20;95.40;;;;;;5025962;28;20013;-68
2021/10/12 09:12:18;;;;;;;14.25;6.72;;;9.30;96.30;;;;;;5022718;28;20029;-68
2021/10/12 09:15:04;;;;;;;14.73;6.22;;;9.30;95.10;;;;;;5029718;28;20036;-68
2021/10/12 09:17:32;;;;;;;16.20;6.80;;;9.20;94.40;;;;;;5024424;28;20052;-68
2021/10/12 09:19:58;;;;;;;14.32;6.80;;;9.20;95.40;;;;;;5025638;28;20063;-67
2021/10/12 09:22:24;;;;;;;15.13;8.20;;;9.20;94.80;;;;;;5020616;28;20037;-67
2021/10/12 09:24:50;;;;;;;13.13;7.32;;;9.20;95.20;;;;;;5025449;28;20029;-67
2021/10/12 09:27:17;;;;;;;13.90;6.65;;;9.20;95.60;;;;;;5025913;28;20026;-67
2021/10/12 09:29:48;;;;;;;12.20;5.95;;;9.20;95.50;;;;;;5025534;28;20482;-67
2021/10/12 09:32:14;;;;;;;10.82;5.60;;;9.20;95.20;;;;;;5020299;28;20053;-67
2021/10/12 09:34:44;;;;;;;16.30;6.00;;;9.20;95.00;;;;;;5021767;28;20139;-67
2021/10/12 09:37:10;;;;;;;11.02;5.80;;;9.20;95.10;;;;;;5027193;28;20021;-68
2021/10/12 09:39:39;;;;;;;10.18;6.25;;;9.20;95.00;;;;;;5026875;28;20034;-68
2021/10/12 09:42:07;;;;;;;10.02;5.05;;;9.20;94.70;;;;;;5025043;28;20384;-67
2021/10/12 09:44:33;;;;;;;;;;;9.20;94.40;;;;;;5025759;28;20076;-67
2021/10/12 09:47:09;;;;;;;7.90;4.78;;;9.10;94.00;;;;;;5025161;28;19978;-67
2021/10/12 09:49:35;;;;;;;10.85;4.80;;;9.10;94.60;;;;;;5028597;28;20037;-68
2021/10/12 09:52:13;;;;;;;9.85;4.45;;;9.10;94.60;;;;;;5029100;28;20108;-67
2021/10/12 09:54:52;;;;;;;8.77;5.70;;;9.20;95.20;;;;;;5023660;28;20143;-67
2021/10/12 09:57:22;;;;;;;8.73;4.68;;;9.30;95.40;;;;;;5029909;28;20115;-67
2021/10/12 09:59:48;;;;;;;7.22;4.18;;;9.30;95.10;;;;;;5028884;28;20100;-67
2021/10/12 10:02:22;;;;;;;8.35;4.82;;;9.30;94.70;;;;;;5026852;28;20117;-68
2021/10/12 10:04:49;;;;;;;6.97;4.15;;;9.30;94.40;;;;;;5027020;28;20624;-67
2021/10/12 10:07:16;;;;;;;7.22;4.65;;;9.30;94.10;;;;;;5026411;28;20136;-67
2021/10/12 10:09:44;;;;;;;10.32;5.95;;;9.40;94.80;;;;;;5026938;28;20029;-67
2021/10/12 10:12:10;;;;;;;8.70;5.25;;;9.50;95.90;;;;;;5024605;28;20390;-68
2021/10/12 10:14:36;;;;;;;8.65;4.68;;;9.50;94.70;;;;;;5029431;28;20093;-69
2021/10/12 10:17:04;;;;;;;9.60;5.38;;;9.50;94.90;;;;;;5029030;28;20554;-67
2021/10/12 10:19:36;;;;;;;9.40;4.95;;;9.60;94.50;;;;;;5029255;28;20021;-67
2021/10/12 10:22:03;;;;;;;9.95;4.63;;;9.60;94.00;;;;;;5029339;28;20032;-67
2021/10/12 10:24:44;;;;;;;7.72;4.40;;;9.60;93.80;;;;;;5027569;28;20028;-68
2021/10/12 10:27:28;;;;;;;9.60;4.95;;;9.60;93.70;;;;;;5028229;28;20427;-66
2021/10/12 10:30:14;;;;;;;9.65;4.65;;;9.60;93.90;;;;;;5029229;28;20041;-69
2021/10/12 10:32:56;;;;;;;8.52;4.28;;;9.60;93.90;;;;;;5027142;28;20073;-67
2021/10/12 10:35:42;;;;;;;8.57;4.68;;;9.60;93.20;;;;;;5025063;28;20083;-68
2021/10/12 10:38:54;;;;;;;6.90;4.30;;;9.60;93.40;;;;;;5044016;28;20203;-67
2021/10/12 10:41:21;;;;;;;8.95;4.32;;;9.70;93.20;;;;;;5028316;28;20347;-68
2021/10/12 10:43:51;;;;;;;7.88;4.13;;;9.60;93.10;;;;;;5026408;28;20024;-68
2021/10/12 10:46:32;;;;;;;6.55;4.32;;;9.60;93.40;;;;;;5026778;28;20030;-67
2021/10/12 10:49:15;;;;;;;7.05;3.90;;;9.70;92.20;;;;;;5028743;28;20017;-67
2021/10/12 10:51:47;;;;;;;6.30;3.95;;;9.60;91.80;;;;;;5029119;28;20030;-67
2021/10/12 10:54:38;;;;;;;4.93;3.58;;;9.60;92.90;;;;;;5026631;28;20017;-68
2021/10/12 10:57:18;;;;;;;6.32;3.20;;;9.60;93.00;;;;;;5026932;28;20025;-67
2021/10/12 10:59:44;;;;;;;5.63;3.85;;;9.60;92.80;;;;;;5027307;28;20465;-67
2021/10/12 11:02:29;;;;;;;4.78;3.08;;;9.60;92.00;;;;;;5021229;28;20052;-68
2021/10/12 11:04:55;;;;;;;6.35;3.53;;;9.50;91.70;;;;;;5025029;28;20446;-68
2021/10/12 11:07:26;;;;;;;8.20;3.20;;;9.60;92.40;;;;;;5028841;28;20025;-67
2021/10/12 11:09:53;;;;;;;5.95;3.42;;;9.50;91.20;;;;;;5027679;28;20048;-67
2021/10/12 11:12:24;;;;;;;4.80;3.05;;;9.40;91.40;;;;;;5025238;28;20402;-67
2021/10/12 11:14:52;;;;;;;7.55;3.55;;;9.50;91.80;;;;;;5020946;28;20036;-67
2021/10/12 11:17:18;;;;;;;5.45;2.83;;;9.50;92.00;;;;;;5027430;28;20021;-68
2021/10/12 11:19:56;;;;;;;5.40;3.30;;;9.50;91.70;;;;;;5027468;28;20518;-68
2021/10/12 11:22:24;;;;;;;4.82;3.20;;;9.50;92.10;;;;;;5028801;28;20028;-68
2021/10/12 11:24:50;;;;;;;5.65;3.28;;;9.60;92.30;;;;;;5028631;28;20021;-67
2021/10/12 11:27:16;;;;;;;4.63;2.85;;;9.60;91.50;;;;;;5028539;28;20036;-67
2021/10/12 11:29:42;;;;;;;5.78;3.53;;;9.60;91.90;;;;;;5027643;28;20100;-68
2021/10/12 11:32:08;;;;;;;6.97;3.55;;;9.60;90.90;;;;;;5025060;28;20510;-67
2021/10/12 11:34:34;;;;;;;3.10;2.67;;;9.50;91.30;;;;;;5025899;28;20120;-68
2021/10/12 11:37:10;;;;;;;6.45;3.90;;;9.60;91.50;;;;;;5028140;28;20541;-67
2021/10/12 11:39:36;;;;;;;6.40;3.70;;;9.60;91.00;;;;;;5029665;28;20030;-68
2021/10/12 11:42:03;;;;;;;5.60;3.65;;;9.60;91.50;;;;;;5030139;28;20062;-67
2021/10/12 11:44:29;;;;;;;6.78;3.70;;;9.70;92.30;;;;;;5030697;28;20424;-68
2021/10/12 11:47:03;;;;;;;6.53;3.50;;;9.70;92.10;;;;;;5027450;28;20104;-67
2021/10/12 11:49:36;;;;;;;5.13;3.20;;;9.70;91.80;;;;;;5023331;28;20026;-67
2021/10/12 11:52:11;;;;;;;8.25;3.97;;;9.70;91.20;;;;;;5026581;28;20389;-67
2021/10/12 11:54:37;;;;;;;7.50;3.90;;;9.70;91.40;;;;;;5026122;28;20048;-67
2021/10/12 11:57:03;;;;;;;4.97;3.50;;;9.70;91.70;;;;;;5028513;28;20061;-67
2021/10/12 11:59:37;;;;;;;4.53;3.58;;;9.70;91.10;;;;;;5020733;28;20476;-67
2021/10/12 12:02:08;;;;;;;7.10;3.80;;;9.70;91.00;;;;;;5022802;28;20496;-67
2021/10/12 12:04:35;;;;;;;6.13;4.70;;;9.70;90.80;;;;;;5019164;28;20030;-67
2021/10/12 12:07:04;;;;;;;5.75;3.67;;;9.60;91.20;;;;;;5026690;28;20036;-68
2021/10/12 12:09:32;;;;;;;6.15;3.90;;;9.70;91.00;;;;;;5027416;28;20557;-67
2021/10/12 12:12:00;;;;;;;6.72;3.70;;;9.70;91.60;;;;;;5027510;28;20053;-67
2021/10/12 12:14:27;;;;;;;5.53;3.30;;;9.70;91.50;;;;;;5027253;28;20099;-67
2021/10/12 12:17:09;;;;;;;8.65;3.85;;;9.70;91.30;;;;;;5028397;28;20033;-68
2021/10/12 12:19:42;;;;;;;6.53;3.78;;;9.70;91.40;;;;;;5026456;28;20025;-68
2021/10/12 12:22:27;;;;;;;5.47;3.58;;;9.70;91.80;;;;;;5026030;28;20504;-68
2021/10/12 12:25:03;;;;;;;5.00;3.60;;;9.70;91.50;;;;;;5026180;28;20025;-68
2021/10/12 12:27:34;;;;;;;5.90;3.72;;;9.70;91.70;;;;;;5017227;28;20048;-68
2021/10/12 12:30:07;;;;;;;7.45;4.03;;;9.70;91.90;;;;;;5018438;28;20029;-67
2021/10/12 12:32:33;;;;;;;7.57;3.83;;;9.70;91.50;;;;;;5021405;28;20045;-68
2021/10/12 12:35:04;;;;;;;6.45;3.67;;;9.70;91.40;;;;;;5024551;28;20144;-67
2021/10/12 12:37:30;;;;;;;7.60;4.15;;;9.70;91.50;;;;;;5021368;28;20068;-67
2021/10/12 12:39:55;;;;;;;9.02;4.00;;;9.70;91.60;;;;;;5026843;28;20492;-67
2021/10/12 12:42:30;;;;;;;4.80;3.70;;;9.70;91.90;;;;;;5022831;28;20045;-67
2021/10/12 12:45:14;;;;;;;7.05;3.40;;;9.70;91.90;;;;;;5026090;28;20112;-68
2021/10/12 12:48:02;;;;;;;5.85;3.83;;;9.70;92.20;;;;;;5024677;28;20030;-67
2021/10/12 12:50:30;;;;;;;4.78;3.60;;;9.80;92.30;;;;;;5023374;28;20032;-67